createdAt,value
2023-04-21T00:00:01.025Z,3.58
2023-04-21T00:03:03.354Z,3.47
2023-04-21T00:06:09.586Z,3.55
2023-04-21T00:09:11.546Z,3.20
2023-04-21T00:12:13.308Z,3.28
2023-04-21T00:15:14.941Z,3.83
2023-04-21T00:18:17.920Z,3.15
2023-04-21T00:21:19.668Z,2.67
2023-04-21T00:24:21.447Z,2.75
2023-04-21T00:27:23.124Z,2.78
2023-04-21T00:30:24.878Z,2.65
2023-04-21T00:33:26.900Z,2.92
2023-04-21T00:36:30.627Z,2.72
2023-04-21T00:39:32.235Z,2.70
2023-04-21T00:42:33.866Z,2.70
2023-04-21T00:45:36.185Z,2.85
2023-04-21T00:48:37.769Z,2.67
2023-04-21T00:51:41.082Z,2.65
2023-04-21T00:54:43.277Z,2.80
2023-04-21T00:57:45.029Z,2.72
2023-04-21T01:00:46.742Z,2.80
2023-04-21T01:03:48.647Z,2.55
2023-04-21T01:06:51.157Z,3.10
2023-04-21T01:09:52.850Z,2.65
2023-04-21T01:12:54.624Z,3.05
2023-04-21T01:15:56.279Z,2.90
2023-04-21T01:18:59.165Z,2.65
2023-04-21T01:22:02.170Z,2.20
2023-04-21T01:25:05.943Z,2.80
2023-04-21T01:28:07.677Z,2.55
2023-04-21T01:31:09.396Z,2.30
2023-04-21T01:34:12.263Z,2.50
2023-04-21T01:37:17.422Z,2.58
2023-04-21T01:40:19.054Z,2.90
2023-04-21T01:43:22.807Z,2.75
2023-04-21T01:46:24.644Z,2.80
2023-04-21T01:49:26.988Z,2.10
2023-04-21T01:52:28.631Z,2.45
2023-04-21T01:55:30.683Z,2.45
2023-04-21T01:58:32.531Z,2.25
2023-04-21T02:01:36.122Z,2.20
2023-04-21T02:04:38.630Z,1.98
2023-04-21T02:07:41.174Z,2.00
2023-04-21T02:10:42.959Z,2.03
2023-04-21T02:13:47.162Z,2.60
2023-04-21T02:16:48.841Z,2.33
2023-04-21T02:19:50.521Z,2.78
2023-04-21T02:22:52.181Z,2.60
2023-04-21T02:25:54.006Z,2.40
2023-04-21T02:28:55.700Z,2.05
2023-04-21T02:32:05.273Z,2.20
2023-04-21T02:35:16.122Z,2.47
2023-04-21T02:38:17.849Z,2.10
2023-04-21T02:41:19.624Z,1.95
2023-04-21T02:44:21.269Z,2.47
2023-04-21T02:47:22.962Z,1.83
2023-04-21T02:50:25.257Z,1.92
2023-04-21T02:53:26.939Z,2.05
2023-04-21T02:56:28.711Z,1.65
2023-04-21T02:59:30.699Z,1.90
2023-04-21T03:02:35.073Z,2.28
2023-04-21T03:05:37.058Z,1.95
2023-04-21T03:08:39.033Z,1.73
2023-04-21T03:11:41.067Z,1.83
2023-04-21T03:14:42.676Z,1.80
2023-04-21T03:17:44.434Z,2.13
2023-04-21T03:20:46.271Z,1.80
2023-04-21T03:23:47.956Z,1.88
2023-04-21T03:26:50.029Z,1.88
2023-04-21T03:29:51.625Z,2.22
2023-04-21T03:32:53.892Z,2.10
2023-04-21T03:35:55.720Z,2.05
2023-04-21T03:39:05.917Z,2.10
2023-04-21T03:42:14.682Z,2.55
2023-04-21T03:45:16.471Z,2.90
2023-04-21T03:48:18.147Z,2.55
2023-04-21T03:51:19.787Z,2.42
2023-04-21T03:54:21.472Z,2.28
2023-04-21T03:57:23.281Z,1.90
2023-04-21T04:00:24.931Z,2.20
2023-04-21T04:03:26.769Z,1.80
2023-04-21T04:06:28.657Z,1.88
2023-04-21T04:09:30.682Z,2.00
2023-04-21T04:12:32.309Z,1.95
2023-04-21T04:15:33.979Z,2.05
2023-04-21T04:18:35.729Z,2.13
2023-04-21T04:21:38.129Z,2.03
2023-04-21T04:24:39.874Z,2.10
2023-04-21T04:27:41.497Z,2.42
2023-04-21T04:30:43.890Z,3.05
2023-04-21T04:33:45.544Z,2.10
2023-04-21T04:36:48.104Z,2.60
2023-04-21T04:39:53.238Z,2.58
2023-04-21T04:42:54.959Z,2.67
2023-04-21T04:45:56.519Z,2.20
2023-04-21T04:48:58.096Z,2.10
2023-04-21T04:51:59.946Z,2.40
2023-04-21T04:55:01.772Z,2.17
2023-04-21T04:58:03.565Z,2.10
2023-04-21T05:01:17.958Z,1.98
2023-04-21T05:04:20.443Z,2.30
2023-04-21T05:07:22.480Z,2.10
2023-04-21T05:10:24.093Z,2.60
2023-04-21T05:13:25.806Z,3.70
2023-04-21T05:16:27.430Z,9.80
2023-04-21T05:19:29.412Z,4.90
2023-04-21T05:22:31.231Z,2.90
2023-04-21T05:25:32.901Z,2.95
2023-04-21T05:28:35.829Z,2.70
2023-04-21T05:31:39.163Z,2.10
2023-04-21T05:34:40.962Z,2.40
2023-04-21T05:37:42.524Z,3.08
2023-04-21T05:40:45.381Z,6.63
2023-04-21T05:43:47.643Z,25.63
2023-04-21T05:46:49.213Z,22.02
2023-04-21T05:49:54.129Z,8.70
2023-04-21T05:52:56.182Z,5.60
2023-04-21T05:55:58.839Z,4.32
2023-04-21T05:59:00.663Z,5.05
2023-04-21T06:02:03.975Z,6.25
2023-04-21T06:05:06.433Z,5.05
2023-04-21T06:08:08.363Z,4.03
2023-04-21T06:11:10.116Z,5.85
2023-04-21T06:14:11.832Z,4.95
2023-04-21T06:17:16.955Z,4.72
2023-04-21T06:20:18.626Z,4.85
2023-04-21T06:23:21.223Z,4.47
2023-04-21T06:26:22.954Z,3.47
2023-04-21T06:29:24.672Z,4.15
2023-04-21T06:32:26.488Z,3.92
2023-04-21T06:35:28.155Z,4.47
2023-04-21T06:38:29.923Z,4.32
2023-04-21T06:41:31.621Z,4.80
2023-04-21T06:44:33.373Z,4.15
2023-04-21T06:47:35.051Z,4.05
2023-04-21T06:50:36.797Z,4.40
2023-04-21T06:53:38.979Z,4.68
2023-04-21T06:56:42.969Z,3.88
2023-04-21T06:59:45.225Z,4.38
2023-04-21T07:02:47.088Z,4.32
2023-04-21T07:05:48.887Z,4.47
2023-04-21T07:08:50.514Z,4.60
2023-04-21T07:11:52.152Z,4.80
2023-04-21T07:14:53.778Z,5.00
2023-04-21T07:17:55.713Z,5.70
2023-04-21T07:20:57.393Z,5.18
2023-04-21T07:23:59.137Z,5.20
2023-04-21T07:27:04.067Z,5.25
2023-04-21T07:30:06.552Z,6.10
2023-04-21T07:33:09.049Z,5.57
2023-04-21T07:36:11.290Z,6.32
2023-04-21T07:39:13.000Z,5.55
2023-04-21T07:42:14.715Z,5.85
2023-04-21T07:45:16.404Z,5.93
2023-04-21T07:48:18.280Z,6.05
2023-04-21T07:51:20.079Z,6.55
2023-04-21T07:54:21.795Z,6.35
2023-04-21T07:57:23.443Z,5.53
2023-04-21T08:00:25.468Z,6.22
2023-04-21T08:03:27.447Z,5.50
2023-04-21T08:06:29.308Z,5.30
2023-04-21T08:09:31.006Z,5.03
2023-04-21T08:12:32.759Z,4.47
2023-04-21T08:15:34.967Z,4.65
2023-04-21T08:18:36.637Z,4.82
2023-04-21T08:21:38.383Z,4.35
2023-04-21T08:24:40.104Z,5.18
2023-04-21T08:27:42.040Z,5.35
2023-04-21T08:30:43.627Z,5.85
2023-04-21T08:33:58.035Z,5.75
2023-04-21T08:37:03.326Z,5.70
2023-04-21T08:40:06.384Z,5.80
2023-04-21T08:43:08.714Z,5.70
2023-04-21T08:46:10.474Z,6.28
2023-04-21T08:49:13.026Z,6.70
2023-04-21T08:52:14.831Z,6.20
2023-04-21T08:55:16.816Z,6.22
2023-04-21T08:58:18.428Z,6.28
2023-04-21T09:01:20.148Z,6.45
2023-04-21T09:04:22.071Z,5.57
2023-04-21T09:07:35.132Z,5.00
2023-04-21T09:10:44.532Z,6.07
2023-04-21T09:13:46.193Z,5.30
2023-04-21T09:17:00.631Z,5.15
2023-04-21T09:20:18.241Z,5.40
2023-04-21T09:23:21.273Z,5.00
2023-04-21T09:26:23.366Z,5.47
2023-04-21T09:29:26.072Z,5.55
2023-04-21T09:32:27.685Z,5.10
2023-04-21T09:35:32.706Z,5.28
2023-04-21T09:38:34.320Z,5.65
2023-04-21T09:41:35.974Z,5.57
2023-04-21T09:44:49.519Z,5.85
2023-04-21T09:47:57.569Z,5.78
2023-04-21T09:57:25.996Z,5.65
2023-04-21T10:00:29.066Z,5.40
2023-04-21T10:03:31.606Z,5.65
2023-04-21T10:06:33.603Z,5.10
2023-04-21T10:09:41.589Z,5.05
2023-04-21T10:12:44.664Z,4.05
2023-04-21T10:15:46.511Z,4.47
2023-04-21T10:18:48.137Z,4.32
2023-04-21T10:21:50.535Z,4.18
2023-04-21T10:24:55.509Z,4.00
2023-04-21T10:27:57.217Z,3.97
2023-04-21T10:31:23.657Z,4.75
2023-04-21T10:34:25.361Z,4.57
2023-04-21T10:37:31.533Z,4.65
2023-04-21T10:43:50.799Z,5.00
2023-04-21T10:46:54.026Z,4.70
2023-04-21T10:49:59.527Z,5.32
2023-04-21T10:53:11.966Z,4.85
2023-04-21T10:56:13.782Z,5.38
2023-04-21T10:59:16.279Z,4.50
2023-04-21T11:02:19.200Z,5.20
2023-04-21T11:05:26.805Z,4.70
2023-04-21T11:08:28.436Z,5.57
2023-04-21T11:11:30.035Z,5.25
2023-04-21T11:14:31.592Z,5.07
2023-04-21T11:17:33.937Z,5.57
2023-04-21T11:20:40.993Z,6.05
2023-04-21T11:23:51.702Z,5.93
2023-04-21T11:26:53.398Z,5.32
2023-04-21T11:29:55.315Z,5.80
2023-04-21T11:32:56.998Z,6.38
2023-04-21T11:36:00.175Z,6.82
2023-04-21T11:39:13.514Z,5.65
2023-04-21T11:42:21.851Z,5.57
2023-04-21T11:45:23.540Z,5.43
2023-04-21T11:48:29.923Z,5.75
2023-04-21T11:51:36.656Z,6.07
2023-04-21T11:54:39.572Z,6.40
2023-04-21T11:57:41.480Z,6.13
2023-04-21T12:00:46.593Z,5.72
2023-04-21T12:03:55.747Z,6.93
2023-04-21T12:07:01.570Z,5.90
2023-04-21T12:10:11.794Z,6.63
2023-04-21T12:13:14.134Z,6.03
2023-04-21T12:16:16.904Z,6.82
2023-04-21T12:19:42.552Z,6.57
2023-04-21T12:22:45.081Z,6.57
2023-04-21T12:25:47.064Z,6.63
2023-04-21T12:28:48.670Z,6.97
2023-04-21T12:31:50.405Z,6.47
2023-04-21T12:34:52.112Z,6.57
2023-04-21T12:37:54.144Z,6.95
2023-04-21T12:40:55.922Z,6.80
2023-04-21T12:43:57.687Z,6.25
2023-04-21T12:46:59.455Z,6.43
2023-04-21T12:50:01.338Z,6.70
2023-04-21T12:53:03.040Z,7.28
2023-04-21T12:56:05.783Z,7.00
2023-04-21T12:59:08.108Z,6.78
2023-04-21T13:02:10.145Z,7.20
2023-04-21T13:05:12.730Z,6.15
2023-04-21T13:08:14.401Z,6.88
2023-04-21T13:11:16.063Z,6.32
2023-04-21T13:14:18.505Z,6.25
2023-04-21T13:17:20.410Z,6.75
2023-04-21T13:20:22.563Z,5.53
2023-04-21T13:23:24.261Z,5.63
2023-04-21T13:26:27.090Z,5.50
2023-04-21T13:29:30.315Z,6.47
2023-04-21T13:32:32.226Z,6.25
2023-04-21T13:35:33.948Z,5.88
2023-04-21T13:38:35.657Z,5.25
2023-04-21T13:41:37.296Z,5.15
2023-04-21T13:44:38.951Z,4.82
2023-04-21T13:47:40.791Z,5.35
2023-04-21T13:50:42.623Z,4.70
2023-04-21T13:53:44.372Z,5.28
2023-04-21T13:56:46.206Z,5.50
2023-04-21T13:59:48.045Z,5.53
2023-04-21T14:02:50.042Z,5.07
2023-04-21T14:05:52.159Z,5.72
2023-04-21T14:08:54.260Z,6.68
2023-04-21T14:11:56.027Z,6.65
2023-04-21T14:14:57.664Z,6.20
2023-04-21T14:18:00.515Z,6.38
2023-04-21T14:21:02.371Z,6.38
2023-04-21T14:24:04.077Z,6.28
2023-04-21T14:27:06.251Z,6.40
2023-04-21T14:30:08.923Z,6.40
2023-04-21T14:33:10.765Z,6.47
2023-04-21T14:36:12.849Z,7.53
2023-04-21T14:39:14.512Z,7.95
2023-04-21T14:42:16.290Z,7.65
2023-04-21T14:45:18.046Z,7.35
2023-04-21T14:48:21.037Z,6.97
2023-04-21T14:51:22.974Z,6.90
2023-04-21T14:54:27.288Z,6.75
2023-04-21T14:57:29.098Z,5.68
2023-04-21T15:00:31.981Z,5.47
2023-04-21T15:03:33.967Z,5.88
2023-04-21T15:06:35.715Z,6.07
2023-04-21T15:09:38.806Z,7.78
2023-04-21T15:12:41.861Z,6.55
2023-04-21T15:15:43.611Z,7.40
2023-04-21T15:18:45.450Z,8.55
2023-04-21T15:21:47.320Z,7.35
2023-04-21T15:24:49.325Z,7.13
2023-04-21T15:27:51.045Z,7.05
2023-04-21T15:30:52.684Z,6.80
2023-04-21T15:33:54.403Z,6.38
2023-04-21T15:36:56.448Z,6.00
2023-04-21T15:39:58.420Z,6.00
2023-04-21T15:43:00.224Z,7.25
2023-04-21T15:46:01.917Z,6.70
2023-04-21T15:49:03.678Z,7.15
2023-04-21T15:52:06.743Z,7.15
2023-04-21T15:55:10.057Z,6.50
2023-04-21T15:58:13.576Z,5.97
2023-04-21T16:01:15.565Z,6.05
2023-04-21T16:04:17.673Z,4.68
2023-04-21T16:07:19.461Z,4.97
2023-04-21T16:10:21.372Z,5.07
2023-04-21T16:13:23.271Z,4.85
2023-04-21T16:16:25.204Z,4.35
2023-04-21T16:19:27.061Z,4.63
2023-04-21T16:22:28.761Z,4.30
2023-04-21T16:25:33.644Z,4.50
2023-04-21T16:28:35.564Z,4.72
2023-04-21T16:31:37.479Z,3.72
2023-04-21T16:34:39.566Z,4.22
2023-04-21T16:37:42.884Z,4.07
2023-04-21T16:40:44.744Z,4.00
2023-04-21T16:43:46.413Z,4.05
2023-04-21T16:46:48.120Z,4.03
2023-04-21T16:49:49.899Z,3.80
2023-04-21T16:52:51.666Z,3.75
2023-04-21T16:55:53.565Z,4.50
2023-04-21T16:58:55.258Z,3.65
2023-04-21T17:01:57.009Z,3.67
2023-04-21T17:04:58.664Z,3.65
2023-04-21T17:08:00.268Z,3.47
2023-04-21T17:11:02.354Z,3.90
2023-04-21T17:14:03.954Z,3.30
2023-04-21T17:17:05.808Z,3.78
2023-04-21T17:20:09.577Z,3.15
2023-04-21T17:23:11.404Z,3.28
2023-04-21T17:26:13.511Z,3.42
2023-04-21T17:29:15.341Z,3.30
2023-04-21T17:32:17.265Z,3.28
2023-04-21T17:35:18.980Z,3.05
2023-04-21T17:38:20.605Z,4.75
2023-04-21T17:41:22.751Z,3.88
2023-04-21T17:44:24.438Z,3.60
2023-04-21T17:47:26.419Z,3.10
2023-04-21T17:50:28.250Z,3.17
2023-04-21T17:53:30.989Z,2.65
2023-04-21T17:56:32.762Z,2.92
2023-04-21T17:59:34.508Z,2.58
2023-04-21T18:02:36.523Z,2.17
2023-04-21T18:05:38.219Z,2.22
2023-04-21T18:08:39.811Z,3.35
2023-04-21T18:11:41.774Z,3.75
2023-04-21T18:14:43.911Z,4.45
2023-04-21T18:17:45.679Z,3.20
2023-04-21T18:20:48.332Z,3.92
2023-04-21T18:23:49.938Z,2.67
2023-04-21T18:26:51.782Z,2.90
2023-04-21T18:29:53.422Z,2.63
2023-04-21T18:32:55.172Z,2.45
2023-04-21T18:35:56.820Z,2.75
2023-04-21T18:38:58.468Z,2.50
2023-04-21T18:42:01.033Z,2.90
2023-04-21T18:45:04.616Z,3.15
2023-04-21T18:48:06.662Z,3.22
2023-04-21T18:51:08.316Z,3.40
2023-04-21T18:54:10.094Z,3.00
2023-04-21T18:57:11.982Z,3.10
2023-04-21T19:00:14.244Z,3.00
2023-04-21T19:03:16.105Z,3.20
2023-04-21T19:06:17.881Z,2.97
2023-04-21T19:09:19.493Z,2.45
2023-04-21T19:12:21.532Z,2.90
2023-04-21T19:15:23.206Z,2.55
2023-04-21T19:18:24.941Z,3.00
2023-04-21T19:21:26.598Z,2.85
2023-04-21T19:24:28.196Z,2.45
2023-04-21T19:27:32.478Z,2.30
2023-04-21T19:30:34.178Z,2.45
2023-04-21T19:33:35.871Z,2.58
2023-04-21T19:36:37.930Z,2.10
2023-04-21T19:39:39.623Z,2.00
2023-04-21T19:42:41.887Z,2.17
2023-04-21T19:45:43.724Z,2.45
2023-04-21T19:48:45.487Z,2.40
2023-04-21T19:51:47.281Z,2.50
2023-04-21T19:54:48.914Z,2.47
2023-04-21T19:57:51.126Z,2.00
2023-04-21T20:00:52.828Z,2.00
2023-04-21T20:03:54.695Z,2.50
2023-04-21T20:06:56.554Z,1.90
2023-04-21T20:09:58.124Z,2.17
2023-04-21T20:12:59.840Z,2.03
2023-04-21T20:16:02.127Z,2.03
2023-04-21T20:19:04.688Z,1.80
2023-04-21T20:22:08.052Z,1.90
2023-04-21T20:25:10.664Z,2.15
2023-04-21T20:28:12.470Z,2.00
2023-04-21T20:31:14.752Z,2.00
2023-04-21T20:34:16.596Z,1.98
2023-04-21T20:37:18.350Z,1.90
2023-04-21T20:40:21.721Z,1.70
2023-04-21T20:43:23.406Z,1.88
2023-04-21T20:46:25.260Z,1.85
2023-04-21T20:49:27.199Z,1.90
2023-04-21T20:52:29.098Z,2.10
2023-04-21T20:55:30.887Z,2.40
2023-04-21T20:58:33.192Z,2.22
2023-04-21T21:01:39.269Z,2.40
2023-04-21T21:04:41.408Z,1.85
2023-04-21T21:07:43.127Z,1.80
2023-04-21T21:10:44.768Z,1.90
2023-04-21T21:13:46.323Z,1.95
2023-04-21T21:16:47.990Z,1.75
2023-04-21T21:19:49.620Z,2.28
2023-04-21T21:22:51.338Z,2.40
2023-04-21T21:25:53.022Z,2.03
2023-04-21T21:28:54.632Z,2.30
2023-04-21T21:31:56.297Z,2.20
2023-04-21T21:34:57.901Z,2.20
2023-04-21T21:37:59.602Z,1.90
2023-04-21T21:41:01.359Z,1.98
2023-04-21T21:44:03.266Z,2.38
2023-04-21T21:47:05.138Z,2.47
2023-04-21T21:50:07.441Z,2.88
2023-04-21T21:53:09.208Z,2.90
2023-04-21T21:56:10.891Z,2.15
2023-04-21T21:59:12.642Z,2.30
2023-04-21T22:02:15.156Z,2.20
2023-04-21T22:05:17.357Z,2.10
2023-04-21T22:08:19.022Z,2.08
2023-04-21T22:11:20.909Z,2.10
2023-04-21T22:14:23.672Z,1.95
2023-04-21T22:17:26.075Z,1.95
2023-04-21T22:20:28.086Z,2.20
2023-04-21T22:23:29.826Z,1.77
2023-04-21T22:26:31.597Z,2.00
2023-04-21T22:29:33.235Z,2.15
2023-04-21T22:32:35.149Z,2.10
2023-04-21T22:35:36.962Z,2.10
2023-04-21T22:38:38.914Z,2.20
2023-04-21T22:41:40.920Z,2.08
2023-04-21T22:44:42.933Z,2.00
2023-04-21T22:47:44.755Z,2.00
2023-04-21T22:50:47.439Z,2.00
2023-04-21T22:53:49.147Z,2.00
2023-04-21T22:56:50.879Z,2.20
2023-04-21T22:59:52.706Z,2.20
2023-04-21T23:02:54.678Z,2.35
2023-04-21T23:05:56.882Z,2.30
2023-04-21T23:08:58.522Z,2.72
2023-04-21T23:12:01.431Z,2.17
2023-04-21T23:15:04.685Z,1.95
2023-04-21T23:18:06.476Z,2.47
2023-04-21T23:21:08.294Z,2.13
2023-04-21T23:24:10.103Z,2.15
2023-04-21T23:27:11.835Z,2.30
2023-04-21T23:30:13.671Z,2.13
2023-04-21T23:33:15.640Z,1.95
2023-04-21T23:36:17.323Z,2.20
2023-04-21T23:39:21.560Z,2.10
2023-04-21T23:42:23.200Z,2.28
2023-04-21T23:45:25.009Z,2.10
2023-04-21T23:48:27.278Z,2.08
2023-04-21T23:51:28.881Z,2.00
2023-04-21T23:54:30.523Z,1.83
2023-04-21T23:57:32.233Z,2.20
